Time;durP1;ratioP1;P1;durP2;ratioP2;P2;SDS_P1;SDS_P2;PMS_P1;PMS_P2;Temp;Humidity;BMP_temperature;BMP_pressure;BME280_temperature;BME280_humidity;BME280_pressure;Samples;Min_cycle;Max_cycle;Signal;HPM_P1;HPM_P2
2023/10/21 00:00:28;;;;;;;;;;;19.50;84.70;;;;;;5032639;27;75540;-44
2023/10/21 00:02:54;;;;;;;;;;;19.50;84.60;;;;;;5037583;27;77038;-42
2023/10/21 00:05:19;;;;;;;;;;;19.50;84.60;;;;;;5038392;27;76318;-42
2023/10/21 00:07:45;;;;;;;;;;;19.50;84.50;;;;;;5037627;27;77744;-44
2023/10/21 00:10:10;;;;;;;;;;;19.50;84.40;;;;;;5030304;27;76836;-42
2023/10/21 00:12:36;;;;;;;;;;;19.50;84.30;;;;;;5017633;27;77307;-42
2023/10/21 00:15:04;;;;;;;;;;;19.50;84.40;;;;;;5030790;27;74489;-43
2023/10/21 00:17:29;;;;;;;;;;;19.40;84.30;;;;;;5036636;27;76723;-42
2023/10/21 00:19:55;;;;;;;;;;;19.40;84.30;;;;;;5034866;27;74854;-44
2023/10/21 00:22:20;;;;;;;;;;;19.40;84.40;;;;;;5035262;27;75782;-43
2023/10/21 00:24:46;;;;;;;;;;;19.50;84.30;;;;;;5036772;27;76876;-43
2023/10/21 00:27:11;;;;;;;;;;;19.50;84.30;;;;;;5037538;27;72102;-41
2023/10/21 00:29:37;;;;;;;;;;;19.50;84.30;;;;;;5035346;27;74629;-44
2023/10/21 00:32:04;;;;;;;;;;;19.50;84.20;;;;;;5022384;27;76207;-43
2023/10/21 00:34:30;;;;;;;;;;;19.40;84.20;;;;;;5039546;27;76270;-42
2023/10/21 00:36:56;;;;;;;;;;;19.40;84.30;;;;;;5030808;27;79307;-42
2023/10/21 00:39:21;;;;;;;;;;;19.40;84.20;;;;;;5033143;27;75650;-46
2023/10/21 00:41:47;;;;;;;;;;;19.40;84.20;;;;;;5015944;27;81591;-42
2023/10/21 00:44:12;;;;;;;;;;;19.30;84.10;;;;;;5039248;27;74665;-42
2023/10/21 00:46:39;;;;;;;;;;;19.30;84.20;;;;;;5029269;27;74177;-42
2023/10/21 00:49:05;;;;;;;;;;;19.30;84.20;;;;;;5029497;27;75033;-40
2023/10/21 00:51:30;;;;;;;;;;;19.30;84.20;;;;;;5030260;27;74610;-44
2023/10/21 00:53:57;;;;;;;;;;;19.30;84.40;;;;;;5034001;27;77030;-40
2023/10/21 00:56:23;;;;;;;;;;;19.30;84.50;;;;;;5031467;27;77152;-40
2023/10/21 00:58:49;;;;;;;;;;;19.30;84.40;;;;;;5032895;27;75084;-40
2023/10/21 01:01:15;;;;;;;;;;;19.30;84.40;;;;;;5032828;27;74345;-40
2023/10/21 01:03:40;;;;;;;;;;;19.30;84.40;;;;;;5032215;27;77665;-40
2023/10/21 01:06:06;;;;;;;;;;;19.20;84.40;;;;;;5037190;27;75084;-40
2023/10/21 01:08:41;;;;;;;;;;;19.20;84.40;;;;;;5030215;27;78366;-41
2023/10/21 01:11:07;;;;;;;;;;;19.20;84.40;;;;;;5033002;27;75397;-40
2023/10/21 01:13:32;;;;;;;;;;;19.20;84.30;;;;;;5029394;27;76216;-41
2023/10/21 01:15:58;;;;;;;;;;;19.20;84.20;;;;;;5033677;27;73327;-42
2023/10/21 01:18:25;;;;;;;;;;;19.20;84.20;;;;;;5034631;27;77008;-41
2023/10/21 01:20:53;;;;;;;;;;;19.20;84.30;;;;;;5033473;27;74874;-40
2023/10/21 01:23:18;;;;;;;;;;;19.20;84.20;;;;;;5032319;27;74702;-42
2023/10/21 01:25:44;;;;;;;;;;;19.20;84.10;;;;;;5035342;27;79776;-40
2023/10/21 01:28:10;;;;;;;;;;;19.20;84.10;;;;;;5036111;27;76450;-42
2023/10/21 01:30:35;;;;;;;;;;;19.20;84.00;;;;;;5038300;27;74293;-40
2023/10/21 01:33:01;;;;;;;;;;;19.20;84.00;;;;;;5035252;27;74314;-46
2023/10/21 01:35:26;;;;;;;;;;;19.20;83.90;;;;;;5041445;27;76301;-42
2023/10/21 01:37:52;;;;;;;;;;;19.20;83.90;;;;;;5040336;27;73476;-41
2023/10/21 01:40:17;;;;;;;;;;;19.20;83.80;;;;;;5037316;27;78179;-41
2023/10/21 01:42:43;;;;;;;;;;;19.10;83.90;;;;;;5038779;27;74688;-42
2023/10/21 01:45:09;;;;;;;;;;;19.10;83.90;;;;;;5039405;27;77892;-40
2023/10/21 01:47:35;;;;;;;;;;;19.10;84.00;;;;;;5037570;27;73973;-40
2023/10/21 01:50:07;;;;;;;;;;;19.10;83.70;;;;;;5039560;27;77367;-41
2023/10/21 01:52:36;;;;;;;;;;;19.10;83.70;;;;;;5017089;28;75490;-41
2023/10/21 01:55:05;;;;;;;;;;;19.10;83.70;;;;;;5038587;27;73973;-41
2023/10/21 01:57:33;;;;;;;;;;;19.10;83.90;;;;;;5032759;27;76622;-43
2023/10/21 01:59:59;;;;;;;;;;;19.10;83.70;;;;;;5041862;27;76945;-40
2023/10/21 02:02:25;;;;;;;;;;;19.10;83.60;;;;;;5026890;27;74950;-40
2023/10/21 02:04:51;;;;;;;;;;;19.10;83.50;;;;;;5042377;27;75778;-41
2023/10/21 02:07:16;;;;;;;;;;;19.10;83.40;;;;;;5021045;28;77528;-40
2023/10/21 02:09:42;;;;;;;;;;;19.10;83.40;;;;;;5039190;27;76355;-42
2023/10/21 02:12:08;;;;;;;;;;;19.10;83.40;;;;;;5034234;27;74781;-40
2023/10/21 02:14:34;;;;;;;;;;;19.10;83.30;;;;;;5033604;27;77398;-41
2023/10/21 02:16:59;;;;;;;;;;;19.20;83.30;;;;;;5040673;27;75165;-41
2023/10/21 02:19:25;;;;;;;;;;;19.20;83.30;;;;;;5037514;27;72810;-42
2023/10/21 02:21:50;;;;;;;;;;;19.10;83.20;;;;;;5040260;27;73618;-42
2023/10/21 02:24:16;;;;;;;;;;;19.20;83.30;;;;;;5036730;27;76641;-42
2023/10/21 02:26:41;;;;;;;;;;;19.10;83.20;;;;;;5035905;27;78175;-41
2023/10/21 02:29:07;;;;;;;;;;;19.10;83.10;;;;;;5036195;27;75939;-41
2023/10/21 02:31:33;;;;;;;;;;;19.10;83.10;;;;;;5039786;27;74975;-42
2023/10/21 02:33:59;;;;;;;;;;;19.10;82.90;;;;;;5040448;27;72477;-41
2023/10/21 02:36:24;;;;;;;;;;;19.20;82.90;;;;;;5038176;27;73320;-40
2023/10/21 02:38:53;;;;;;;;;;;19.20;82.90;;;;;;5033415;27;80518;-41
2023/10/21 02:41:19;;;;;;;;;;;19.20;82.80;;;;;;5040787;27;74883;-41
2023/10/21 02:43:44;;;;;;;;;;;19.20;82.80;;;;;;5038543;27;76162;-42
2023/10/21 02:46:10;;;;;;;;;;;19.20;82.80;;;;;;5036574;27;72500;-40
2023/10/21 02:48:36;;;;;;;;;;;19.20;82.70;;;;;;5034887;27;74266;-39
2023/10/21 02:51:13;;;;;;;;;;;19.10;82.70;;;;;;5041059;27;74209;-40
2023/10/21 02:53:42;;;;;;;;;;;19.20;82.80;;;;;;5040538;27;73923;-40
2023/10/21 02:56:08;;;;;;;;;;;19.10;82.80;;;;;;5039416;27;72954;-39
2023/10/21 02:58:34;;;;;;;;;;;19.10;82.80;;;;;;5036890;27;76164;-38
2023/10/21 03:01:16;;;;;;;;;;;19.10;82.70;;;;;;5036941;27;73745;-38
2023/10/21 03:03:43;;;;;;;;;;;19.10;82.60;;;;;;5031091;27;78039;-39
2023/10/21 03:06:09;;;;;;;;;;;19.10;82.60;;;;;;5041425;27;73530;-39
2023/10/21 03:08:35;;;;;;;;;;;19.10;82.70;;;;;;5037399;27;74266;-40
2023/10/21 03:11:02;;;;;;;;;;;19.10;82.50;;;;;;5035940;27;74955;-39
2023/10/21 03:13:27;;;;;;;;;;;19.10;82.40;;;;;;5018350;27;73633;-39
2023/10/21 03:15:53;;;;;;;;;;;19.10;82.50;;;;;;5040746;27;73047;-43
2023/10/21 03:18:18;;;;;;;;;;;19.10;82.50;;;;;;5030432;27;82727;-40
2023/10/21 03:20:48;;;;;;;;;;;19.10;82.50;;;;;;5035252;27;78054;-43
2023/10/21 03:23:14;;;;;;;;;;;19.10;82.50;;;;;;5030129;27;76872;-39
2023/10/21 03:25:39;;;;;;;;;;;19.10;82.40;;;;;;5034138;27;75348;-38
2023/10/21 03:28:05;;;;;;;;;;;19.10;82.50;;;;;;5037452;27;78997;-41
2023/10/21 03:30:30;;;;;;;;;;;19.10;82.50;;;;;;5031049;27;77082;-40
2023/10/21 03:32:56;;;;;;;;;;;19.10;82.50;;;;;;5038342;27;76866;-42
2023/10/21 03:35:22;;;;;;;;;;;19.10;82.40;;;;;;5036068;27;71974;-38
2023/10/21 03:37:47;;;;;;;;;;;19.10;82.30;;;;;;5040373;27;78052;-44
2023/10/21 03:40:13;;;;;;;;;;;19.10;83.10;;;;;;5037316;27;76808;-39
2023/10/21 03:42:38;;;;;;;;;;;19.10;82.40;;;;;;5034770;27;75723;-40
2023/10/21 03:45:05;;;;;;;;;;;19.10;82.20;;;;;;5040501;27;73252;-44
2023/10/21 03:47:30;;;;;;;;;;;19.10;82.40;;;;;;5037456;27;73461;-39
2023/10/21 03:49:57;;;;;;;;;;;19.10;82.30;;;;;;5035769;27;75086;-42
2023/10/21 03:52:22;;;;;;;;;;;19.10;82.20;;;;;;5032144;27;79562;-40
2023/10/21 03:54:48;;;;;;;;;;;19.10;82.20;;;;;;5038123;27;74141;-42
2023/10/21 03:57:13;;;;;;;;;;;19.10;82.20;;;;;;5032080;27;71929;-43
2023/10/21 03:59:39;;;;;;;;;;;19.10;82.10;;;;;;5033899;27;74030;-40
2023/10/21 04:02:05;;;;;;;;;;;19.10;82.00;;;;;;5035461;27;72310;-37
2023/10/21 04:04:31;;;;;;;;;;;19.10;82.00;;;;;;5020878;27;75498;-38
2023/10/21 04:06:56;;;;;;;;;;;19.10;82.00;;;;;;5034690;27;75543;-40
2023/10/21 04:09:22;;;;;;;;;;;19.10;81.90;;;;;;5035407;27;76061;-38
2023/10/21 04:11:48;;;;;;;;;;;19.10;82.10;;;;;;5018391;27;75537;-38
2023/10/21 04:14:14;;;;;;;;;;;19.00;82.20;;;;;;5041008;27;74353;-40
2023/10/21 04:16:44;;;;;;;;;;;19.00;82.20;;;;;;5034085;27;81019;-40
2023/10/21 04:19:10;;;;;;;;;;;19.00;82.10;;;;;;5033363;27;75240;-41
2023/10/21 04:21:36;;;;;;;;;;;19.00;82.10;;;;;;5030321;27;76609;-41
2023/10/21 04:24:03;;;;;;;;;;;19.10;82.00;;;;;;5031030;27;75999;-39
2023/10/21 04:26:29;;;;;;;;;;;19.00;82.60;;;;;;5039192;27;72246;-39
2023/10/21 04:28:54;;;;;;;;;;;19.10;82.00;;;;;;5035781;27;79187;-40
2023/10/21 04:31:20;;;;;;;;;;;19.00;82.10;;;;;;5031612;27;74988;-38
2023/10/21 04:33:45;;;;;;;;;;;19.00;82.30;;;;;;5039053;27;74684;-37
2023/10/21 04:36:11;;;;;;;;;;;19.00;82.20;;;;;;5039758;27;72249;-39
2023/10/21 04:38:36;;;;;;;;;;;19.00;82.20;;;;;;5035503;27;76015;-37
2023/10/21 04:41:02;;;;;;;;;;;19.00;82.10;;;;;;5037230;27;80191;-39
2023/10/21 04:43:28;;;;;;;;;;;19.00;82.10;;;;;;5016484;27;75414;-38
2023/10/21 04:45:54;;;;;;;;;;;19.00;82.10;;;;;;5032081;27;75909;-46
2023/10/21 04:48:19;;;;;;;;;;;19.00;82.80;;;;;;5035239;27;77684;-41
2023/10/21 04:50:45;;;;;;;;;;;19.00;82.00;;;;;;5036775;27;73916;-42
2023/10/21 04:53:10;;;;;;;;;;;19.00;82.00;;;;;;5039066;27;74026;-40
2023/10/21 04:55:36;;;;;;;;;;;19.00;82.00;;;;;;5032693;27;71938;-44
2023/10/21 04:58:01;;;;;;;;;;;19.00;82.00;;;;;;5021949;27;71846;-42
2023/10/21 05:00:28;;;;;;;;;;;19.00;81.90;;;;;;5033739;27;76731;-43
2023/10/21 05:02:54;;;;;;;;;;;19.00;82.00;;;;;;5041940;27;74563;-41
2023/10/21 05:05:19;;;;;;;;;;;19.00;82.00;;;;;;5034455;27;74450;-41
2023/10/21 05:07:45;;;;;;;;;;;19.00;81.80;;;;;;5035003;27;77162;-41
2023/10/21 05:10:11;;;;;;;;;;;19.00;81.90;;;;;;5017114;28;76101;-38
2023/10/21 05:12:36;;;;;;;;;;;19.00;82.00;;;;;;5021842;28;72564;-41
2023/10/21 05:15:02;;;;;;;;;;;19.00;81.80;;;;;;5023722;28;72415;-41
2023/10/21 05:17:28;;;;;;;;;;;19.00;81.80;;;;;;5016564;28;72558;-40
2023/10/21 05:19:53;;;;;;;;;;;19.00;81.80;;;;;;5015559;28;76555;-40
2023/10/21 05:22:19;;;;;;;;;;;18.90;81.80;;;;;;5020497;28;75018;-40
2023/10/21 05:24:44;;;;;;;;;;;18.90;81.90;;;;;;5017774;28;76583;-36
2023/10/21 05:27:10;;;;;;;;;;;18.90;81.80;;;;;;5018526;28;75531;-36
2023/10/21 05:29:36;;;;;;;;;;;19.00;81.80;;;;;;5013322;28;79684;-37
2023/10/21 05:32:02;;;;;;;;;;;18.90;81.60;;;;;;5001526;28;70902;-37
2023/10/21 05:34:28;;;;;;;;;;;18.90;81.80;;;;;;5018239;28;75734;-36
2023/10/21 05:36:53;;;;;;;;;;;18.90;81.80;;;;;;5001971;28;79534;-37
2023/10/21 05:39:19;;;;;;;;;;;18.90;81.70;;;;;;5017422;28;75192;-36
2023/10/21 05:41:44;;;;;;;;;;;18.90;82.40;;;;;;5017583;28;75439;-36
2023/10/21 05:44:10;;;;;;;;;;;18.90;81.70;;;;;;5007170;28;73487;-38
2023/10/21 05:46:36;;;;;;;;;;;18.90;81.70;;;;;;5018424;28;76617;-39
2023/10/21 05:49:02;;;;;;;;;;;18.90;81.50;;;;;;5017454;28;78051;-40
2023/10/21 05:51:28;;;;;;;;;;;19.00;81.50;;;;;;5019554;28;73176;-37
2023/10/21 05:53:53;;;;;;;;;;;19.00;81.40;;;;;;5017974;28;78394;-37
2023/10/21 05:56:19;;;;;;;;;;;18.90;81.40;;;;;;5014544;28;77493;-37
2023/10/21 05:58:44;;;;;;;;;;;18.90;81.40;;;;;;5001513;28;77016;-37
2023/10/21 06:01:11;;;;;;;;;;;18.90;81.40;;;;;;5014808;28;76429;-37
2023/10/21 06:03:37;;;;;;;;;;;18.90;81.50;;;;;;5018673;28;78019;-36
2023/10/21 06:06:03;;;;;;;;;;;18.90;81.60;;;;;;5002046;28;79908;-37
2023/10/21 06:08:29;;;;;;;;;;;18.90;82.30;;;;;;5028236;27;75042;-36
2023/10/21 06:10:55;;;;;;;;;;;18.90;81.50;;;;;;5041485;27;76659;-37
2023/10/21 06:13:20;;;;;;;;;;;18.90;81.50;;;;;;5033989;27;74235;-37
2023/10/21 06:15:48;;;;;;;;;;;18.90;81.30;;;;;;5042401;27;71256;-37
2023/10/21 06:18:13;;;;;;;;;;;18.90;81.30;;;;;;5038039;27;79553;-39
2023/10/21 06:20:39;;;;;;;;;;;18.90;81.40;;;;;;5039371;27;77513;-37
2023/10/21 06:23:05;;;;;;;;;;;18.80;81.30;;;;;;5012103;27;76400;-37
2023/10/21 06:25:31;;;;;;;;;;;18.80;81.30;;;;;;5036960;27;75379;-36
2023/10/21 06:27:59;;;;;;;;;;;18.90;81.20;;;;;;5036627;27;75700;-36
2023/10/21 06:30:25;;;;;;;;;;;18.90;81.20;;;;;;5018088;27;75575;-36
2023/10/21 06:32:51;;;;;;;;;;;18.90;81.10;;;;;;5038290;27;73527;-36
2023/10/21 06:35:16;;;;;;;;;;;18.80;81.30;;;;;;5034851;27;74752;-38
2023/10/21 06:37:43;;;;;;;;;;;18.80;81.40;;;;;;5041822;27;74891;-41
2023/10/21 06:40:08;;;;;;;;;;;18.80;81.60;;;;;;5033708;27;76121;-39
2023/10/21 06:42:34;;;;;;;;;;;18.80;81.50;;;;;;5039913;27;81271;-39
2023/10/21 06:45:00;;;;;;;;;;;18.80;81.50;;;;;;5038847;27;74547;-38
2023/10/21 06:47:25;;;;;;;;;;;18.80;81.30;;;;;;5034790;27;73314;-38
2023/10/21 06:49:51;;;;;;;;;;;18.80;81.20;;;;;;5034239;27;72853;-38
2023/10/21 06:52:17;;;;;;;;;;;18.80;81.20;;;;;;5037576;27;75432;-37
2023/10/21 06:54:43;;;;;;;;;;;18.80;81.10;;;;;;5037718;27;80694;-38
2023/10/21 06:57:09;;;;;;;;;;;18.80;81.20;;;;;;5034659;27;74163;-40
2023/10/21 06:59:35;;;;;;;;;;;18.80;81.00;;;;;;5037572;27;76930;-40
2023/10/21 07:02:00;;;;;;;;;;;18.80;80.90;;;;;;5035319;27;77439;-37
2023/10/21 07:04:26;;;;;;;;;;;18.80;81.00;;;;;;5038719;27;77645;-38
2023/10/21 07:06:51;;;;;;;;;;;18.80;80.90;;;;;;5032566;27;77657;-39
2023/10/21 07:09:17;;;;;;;;;;;18.80;80.80;;;;;;5037508;27;76394;-39
2023/10/21 07:11:42;;;;;;;;;;;18.80;80.90;;;;;;5029730;27;75473;-41
2023/10/21 07:14:08;;;;;;;;;;;18.80;80.90;;;;;;5036925;27;73970;-40
2023/10/21 07:16:33;;;;;;;;;;;18.80;81.00;;;;;;5044943;27;77075;-41
2023/10/21 07:18:59;;;;;;;;;;;18.80;81.00;;;;;;5036022;27;78082;-41
2023/10/21 07:21:25;;;;;;;;;;;18.70;81.10;;;;;;5046393;22;73090;-70
2023/10/21 07:23:51;;;;;;;;;;;18.70;81.20;;;;;;5058622;27;74027;-70
2023/10/21 07:26:16;;;;;;;;;;;18.70;81.20;;;;;;5067499;27;77817;-70
2023/10/21 07:28:42;;;;;;;;;;;18.70;81.50;;;;;;5065057;27;74054;-72
2023/10/21 07:31:08;;;;;;;;;;;18.80;81.90;;;;;;5058231;27;77599;-71
2023/10/21 07:33:34;;;;;;;;;;;18.80;81.20;;;;;;5049789;27;77619;-71
2023/10/21 07:35:59;;;;;;;;;;;18.80;81.00;;;;;;5061366;27;78110;-71
2023/10/21 07:38:25;;;;;;;;;;;18.80;80.90;;;;;;5057468;27;70258;-70
2023/10/21 07:40:51;;;;;;;;;;;18.80;81.00;;;;;;5063235;27;71881;-71
2023/10/21 07:43:16;;;;;;;;;;;18.80;80.90;;;;;;5055682;27;71308;-71
2023/10/21 07:45:42;;;;;;;;;;;18.80;80.90;;;;;;5046024;27;76844;-71
2023/10/21 07:48:07;;;;;;;;;;;18.80;80.70;;;;;;5060583;27;78657;-71
2023/10/21 07:50:33;;;;;;;;;;;18.90;80.70;;;;;;5070539;27;71469;-70
2023/10/21 07:52:59;;;;;;;;;;;18.90;80.60;;;;;;5062514;27;75912;-71
2023/10/21 07:55:24;;;;;;;;;;;18.90;80.50;;;;;;5057044;27;82698;-72
2023/10/21 07:57:50;;;;;;;;;;;18.80;80.40;;;;;;5036852;27;74261;-71
2023/10/21 08:00:16;;;;;;;;;;;18.80;80.30;;;;;;5060429;27;72917;-71
2023/10/21 08:02:41;;;;;;;;;;;18.80;80.40;;;;;;5059694;27;73086;-72
2023/10/21 08:05:07;;;;;;;;;;;18.90;80.30;;;;;;5056152;27;73466;-71
2023/10/21 08:07:34;;;;;;;;;;;18.90;80.20;;;;;;5053151;27;72584;-72
2023/10/21 08:09:59;;;;;;;;;;;18.90;80.10;;;;;;5047269;27;72672;-73
2023/10/21 08:12:25;;;;;;;;;;;18.90;80.10;;;;;;5040809;27;76269;-73
2023/10/21 08:14:50;;;;;;;;;;;18.90;80.10;;;;;;5045561;27;72780;-73
2023/10/21 08:17:17;;;;;;;;;;;18.90;80.00;;;;;;5019714;28;72350;-74
2023/10/21 08:19:43;;;;;;;;;;;18.90;79.80;;;;;;5040887;27;75435;-73
2023/10/21 08:22:09;;;;;;;;;;;18.90;79.80;;;;;;5042612;27;74738;-73
2023/10/21 08:24:34;;;;;;;;;;;18.90;79.80;;;;;;5032659;27;73652;-73
2023/10/21 08:27:00;;;;;;;;;;;18.90;79.60;;;;;;5040382;27;75451;-72
2023/10/21 08:29:26;;;;;;;;;;;19.00;79.40;;;;;;5040017;27;73696;-72
2023/10/21 08:31:51;;;;;;;;;;;19.00;79.20;;;;;;5042014;27;75712;-73
2023/10/21 08:34:17;;;;;;;;;;;19.00;79.20;;;;;;5039748;27;76045;-73
2023/10/21 08:36:42;;;;;;;;;;;19.00;79.80;;;;;;5041819;27;72414;-73
2023/10/21 08:39:08;;;;;;;;;;;19.00;79.00;;;;;;5045485;27;77777;-73
2023/10/21 08:41:35;;;;;;;;;;;19.00;79.00;;;;;;5045966;27;72678;-72
2023/10/21 08:44:00;;;;;;;;;;;19.00;79.00;;;;;;5069924;22;78072;-40
2023/10/21 08:46:26;;;;;;;;;;;19.00;79.00;;;;;;5049094;27;76085;-39
2023/10/21 08:48:52;;;;;;;;;;;19.00;79.30;;;;;;5048816;27;74429;-41
2023/10/21 08:51:20;;;;;;;;;;;19.00;79.40;;;;;;5051439;27;73807;-39
2023/10/21 08:53:48;;;;;;;;;;;19.10;79.80;;;;;;5053909;27;76309;-39
2023/10/21 08:56:14;;;;;;;;;;;19.10;80.20;;;;;;5051896;27;76349;-37
2023/10/21 08:58:41;;;;;;;;;;;19.20;80.40;;;;;;5055975;27;75198;-40
2023/10/21 09:01:07;;;;;;;;;;;19.20;80.30;;;;;;5051197;27;77188;-38
2023/10/21 09:03:32;;;;;;;;;;;19.20;79.80;;;;;;5058398;27;72375;-38
2023/10/21 09:06:12;;;;;;;;;;;19.20;79.60;;;;;;5055607;27;73554;-37
2023/10/21 09:08:40;;;;;;;;;;;19.30;79.40;;;;;;5049451;27;82543;-40
2023/10/21 09:11:10;;;;;;;;;;;19.30;79.80;;;;;;5051830;27;73429;-38
2023/10/21 09:13:40;;;;;;;;;;;19.30;79.40;;;;;;5049986;27;77362;-38
2023/10/21 09:16:19;;;;;;;;;;;19.40;79.10;;;;;;5048798;27;79973;-39
2023/10/21 09:18:57;;;;;;;;;;;19.40;79.10;;;;;;5041731;27;73749;-39
2023/10/21 09:21:32;;;;;;;;;;;19.40;79.10;;;;;;5049570;27;73699;-42
2023/10/21 09:24:02;;;;;;;;;;;19.50;78.70;;;;;;5023981;27;76567;-40
2023/10/21 09:26:34;;;;;;;;;;;19.50;78.50;;;;;;5022392;27;77003;-40
2023/10/21 09:29:11;;;;;;;;;;;19.50;78.40;;;;;;5022864;27;75474;-40
2023/10/21 09:31:55;;;;;;;;;;;19.60;78.30;;;;;;5003004;27;73780;-40
2023/10/21 09:34:29;;;;;;;;;;;19.60;78.20;;;;;;5021283;27;85365;-39
2023/10/21 09:36:55;;;;;;;;;;;19.70;77.80;;;;;;5033621;27;77757;-38
2023/10/21 09:39:21;;;;;;;;;;;19.70;77.50;;;;;;5029790;27;75612;-39
2023/10/21 09:41:50;;;;;;;;;;;19.70;77.20;;;;;;5024073;27;72815;-39
2023/10/21 09:44:16;;;;;;;;;;;19.70;77.10;;;;;;5032041;27;74082;-39
2023/10/21 09:46:45;;;;;;;;;;;19.70;76.90;;;;;;5027379;27;79647;-39
2023/10/21 09:49:12;;;;;;;;;;;19.70;77.00;;;;;;5039429;27;74328;-39
2023/10/21 09:51:45;;;;;;;;;;;19.70;77.00;;;;;;5042391;27;72923;-39
2023/10/21 09:54:13;;;;;;;;;;;19.70;76.90;;;;;;5036392;27;73389;-40
2023/10/21 09:56:39;;;;;;;;;;;19.70;77.20;;;;;;5018246;27;74022;-39
2023/10/21 09:59:05;;;;;;;;;;;19.70;77.40;;;;;;5030278;27;75505;-40
2023/10/21 10:01:31;;;;;;;;;;;19.80;77.20;;;;;;5029202;27;74919;-41
2023/10/21 10:03:59;;;;;;;;;;;19.90;76.70;;;;;;5031409;27;80175;-39
2023/10/21 10:06:26;;;;;;;;;;;19.90;76.30;;;;;;5027951;27;79169;-39
2023/10/21 10:08:51;;;;;;;;;;;19.90;76.10;;;;;;5033833;27;77545;-40
2023/10/21 10:11:18;;;;;;;;;;;20.00;76.00;;;;;;5024114;27;74795;-38
2023/10/21 10:13:46;;;;;;;;;;;20.00;76.60;;;;;;5029851;27;76203;-39
2023/10/21 10:16:22;;;;;;;;;;;20.00;77.10;;;;;;5016949;27;78620;-39
2023/10/21 10:18:50;;;;;;;;;;;20.00;76.70;;;;;;5037270;28;74991;-39
2023/10/21 10:21:16;;;;;;;;;;;20.00;75.90;;;;;;5032714;27;72151;-39
2023/10/21 10:23:47;;;;;;;;;;;20.10;76.80;;;;;;5029626;27;80272;-38
2023/10/21 10:26:15;;;;;;;;;;;20.10;76.40;;;;;;5003235;27;74387;-40
2023/10/21 10:28:41;;;;;;;;;;;20.10;76.10;;;;;;4984459;28;74686;-39
2023/10/21 10:31:07;;;;;;;;;;;20.10;76.20;;;;;;5022233;27;73892;-40
2023/10/21 10:33:33;;;;;;;;;;;20.10;76.70;;;;;;5024232;27;72568;-39
2023/10/21 10:36:12;;;;;;;;;;;20.10;75.80;;;;;;5025385;27;77322;-40
2023/10/21 10:38:44;;;;;;;;;;;20.10;76.50;;;;;;5031846;27;74855;-39
2023/10/21 10:41:18;;;;;;;;;;;20.20;76.40;;;;;;5030539;27;73816;-39
2023/10/21 10:43:45;;;;;;;;;;;20.20;76.60;;;;;;5012367;27;78744;-39
2023/10/21 10:46:17;;;;;;;;;;;20.20;76.70;;;;;;5033569;27;76413;-39
2023/10/21 10:48:43;;;;;;;;;;;20.10;76.50;;;;;;5035814;27;76601;-39
2023/10/21 10:51:15;;;;;;;;;;;20.20;76.70;;;;;;5035008;27;72625;-39
2023/10/21 10:53:44;;;;;;;;;;;20.20;77.00;;;;;;5034790;27;73800;-40
2023/10/21 10:56:14;;;;;;;;;;;20.20;77.20;;;;;;5036116;27;78466;-40
2023/10/21 10:58:42;;;;;;;;;;;20.20;77.20;;;;;;5033790;27;75913;-40
2023/10/21 11:01:17;;;;;;;;;;;20.20;77.20;;;;;;5030328;27;80542;-39
2023/10/21 11:03:43;;;;;;;;;;;20.20;77.10;;;;;;5036727;27;78034;-39
2023/10/21 11:06:09;;;;;;;;;;;20.20;77.40;;;;;;5044998;27;75867;-39
2023/10/21 11:08:35;;;;;;;;;;;20.20;77.40;;;;;;5038296;27;74247;-39
2023/10/21 11:11:04;;;;;;;;;;;20.20;77.90;;;;;;5037822;27;75958;-39
2023/10/21 11:13:30;;;;;;;;;;;20.30;78.00;;;;;;5034876;27;79140;-39
2023/10/21 11:15:57;;;;;;;;;;;20.30;77.80;;;;;;5040968;27;76511;-40
2023/10/21 11:18:25;;;;;;;;;;;20.40;78.10;;;;;;5034262;27;75466;-40
2023/10/21 11:20:51;;;;;;;;;;;20.30;78.20;;;;;;5034617;27;73799;-40
2023/10/21 11:23:19;;;;;;;;;;;20.40;77.90;;;;;;5033627;27;78694;-40
2023/10/21 11:25:46;;;;;;;;;;;20.40;77.90;;;;;;5026841;27;76497;-40
2023/10/21 11:28:14;;;;;;;;;;;20.50;77.80;;;;;;5031073;27;75635;-39
2023/10/21 11:30:49;;;;;;;;;;;20.50;77.60;;;;;;5038656;27;72534;-39
2023/10/21 11:33:15;;;;;;;;;;;20.50;77.60;;;;;;5040531;27;73652;-40
2023/10/21 11:35:42;;;;;;;;;;;20.60;77.50;;;;;;5037259;27;74399;-39
2023/10/21 11:38:07;;;;;;;;;;;20.60;77.40;;;;;;5034722;27;74667;-39
2023/10/21 11:40:34;;;;;;;;;;;20.60;77.60;;;;;;5035862;27;73933;-39
2023/10/21 11:43:06;;;;;;;;;;;20.60;77.50;;;;;;5038747;27;72458;-39
2023/10/21 11:45:32;;;;;;;;;;;20.60;77.50;;;;;;5033145;27;75871;-39
2023/10/21 11:48:01;;;;;;;;;;;20.70;77.50;;;;;;5026795;27;75270;-40
2023/10/21 11:50:34;;;;;;;;;;;20.60;77.40;;;;;;5018018;27;74430;-40
2023/10/21 11:53:03;;;;;;;;;;;20.70;77.80;;;;;;5035246;27;75940;-40
2023/10/21 12:10:18;;;;;;;;;;;20.40;77.40;;;;;;5041191;27;76000;-40
2023/10/21 12:21:06;;;;;;;;;;;20.20;77.80;;;;;;5043722;27;76086;-39
2023/10/21 12:29:11;;;;;;;;;;;20.20;77.70;;;;;;5045303;27;71737;-40
2023/10/21 12:41:48;;;;;;;;;;;20.20;77.30;;;;;;5042121;27;75389;-39
2023/10/21 12:44:16;;;;;;;;;;;20.20;77.50;;;;;;5039058;27;76183;-39
2023/10/21 12:46:41;;;;;;;;;;;20.10;77.20;;;;;;5041754;27;73321;-40
2023/10/21 12:49:13;;;;;;;;;;;20.20;77.20;;;;;;5045515;27;73314;-39
2023/10/21 12:51:39;;;;;;;;;;;20.20;77.00;;;;;;5041364;27;75676;-40
2023/10/21 12:54:09;;;;;;;;;;;20.20;77.00;;;;;;5041938;27;74999;-39
2023/10/21 12:56:35;;;;;;;;;;;20.10;77.70;;;;;;5045205;27;77238;-40
2023/10/21 12:59:01;;;;;;;;;;;20.20;77.10;;;;;;5041179;27;72733;-40
2023/10/21 13:01:28;;;;;;;;;;;20.20;77.10;;;;;;5042892;27;74227;-40
2023/10/21 13:03:56;;;;;;;;;;;20.20;76.80;;;;;;5042855;27;75749;-39
2023/10/21 13:06:21;;;;;;;;;;;20.20;76.80;;;;;;5021587;27;79002;-39
2023/10/21 13:08:50;;;;;;;;;;;20.20;76.90;;;;;;5038931;27;74379;-39
2023/10/21 13:11:17;;;;;;;;;;;20.10;76.70;;;;;;5040840;27;70514;-39
2023/10/21 13:13:43;;;;;;;;;;;20.10;77.50;;;;;;5034915;27;75892;-39
2023/10/21 13:16:09;;;;;;;;;;;20.20;77.60;;;;;;5041991;27;80494;-40
2023/10/21 13:18:35;;;;;;;;;;;20.10;76.70;;;;;;5040581;27;75303;-40
2023/10/21 13:21:01;;;;;;;;;;;20.10;76.60;;;;;;5039336;27;77970;-39
2023/10/21 13:23:27;;;;;;;;;;;20.20;76.40;;;;;;5040685;27;75797;-39
2023/10/21 13:25:53;;;;;;;;;;;20.20;76.70;;;;;;5033959;27;73669;-39
2023/10/21 13:28:19;;;;;;;;;;;20.10;76.40;;;;;;5047691;27;74771;-39
2023/10/21 13:30:48;;;;;;;;;;;20.10;76.70;;;;;;5039205;27;73679;-39
2023/10/21 13:33:14;;;;;;;;;;;20.10;76.60;;;;;;5046764;22;75471;-71
2023/10/21 13:35:40;;;;;;;;;;;20.10;76.50;;;;;;5058202;27;75054;-74
2023/10/21 13:38:05;;;;;;;;;;;20.10;76.70;;;;;;5063411;27;76298;-77
2023/10/21 13:40:31;;;;;;;;;;;20.10;76.50;;;;;;5061227;27;73199;-77
2023/10/21 13:42:57;;;;;;;;;;;20.10;76.50;;;;;;5057510;27;77617;-74
2023/10/21 13:45:26;;;;;;;;;;;20.10;76.50;;;;;;5058131;27;76443;-79
2023/10/21 13:47:51;;;;;;;;;;;20.10;76.70;;;;;;5059147;27;77480;-77
2023/10/21 13:50:18;;;;;;;;;;;20.10;76.70;;;;;;5065338;27;74381;-77
2023/10/21 13:52:47;;;;;;;;;;;20.10;77.30;;;;;;5064814;27;76900;-80
2023/10/21 13:55:16;;;;;;;;;;;20.10;77.10;;;;;;5059431;27;75011;-76
2023/10/21 13:57:45;;;;;;;;;;;20.10;77.10;;;;;;5062092;27;82178;-74
2023/10/21 14:00:31;;;;;;;;;;;20.10;77.00;;;;;;5061636;27;73553;-75
2023/10/21 14:03:18;;;;;;;;;;;20.10;77.10;;;;;;5067961;27;73507;-77
2023/10/21 14:05:50;;;;;;;;;;;20.10;77.70;;;;;;5066351;27;73718;-72
2023/10/21 14:08:19;;;;;;;;;;;20.10;76.90;;;;;;5056642;27;76892;-71
2023/10/21 14:10:45;;;;;;;;;;;20.10;77.10;;;;;;5036042;27;77543;-69
2023/10/21 14:13:22;;;;;;;;;;;20.10;77.50;;;;;;5036747;27;73729;-71
2023/10/21 14:16:11;;;;;;;;;;;20.10;77.80;;;;;;5035427;27;75968;-71
2023/10/21 14:18:34;;;;;;;;;;;20.10;77.60;;;;;;5031725;27;74950;-72
2023/10/21 14:20:59;;;;;;;;;;;20.10;77.60;;;;;;5031995;27;73528;-71
2023/10/21 14:23:26;;;;;;;;;;;20.10;77.60;;;;;;5036159;27;76100;-71
2023/10/21 14:25:54;;;;;;;;;;;20.10;77.60;;;;;;5043178;27;75538;-71
2023/10/21 14:28:20;;;;;;;;;;;20.10;77.50;;;;;;5042228;27;72425;-70
2023/10/21 14:30:47;;;;;;;;;;;20.10;77.50;;;;;;5034958;27;73321;-71
2023/10/21 14:33:15;;;;;;;;;;;20.10;77.50;;;;;;5023711;27;73638;-72
2023/10/21 14:35:45;;;;;;;;;;;20.10;77.50;;;;;;5039856;27;75185;-72
2023/10/21 14:38:11;;;;;;;;;;;20.10;77.60;;;;;;5039989;27;73908;-71
2023/10/21 14:40:37;;;;;;;;;;;20.00;77.50;;;;;;5039727;27;76871;-71
2023/10/21 14:43:03;;;;;;;;;;;20.00;77.50;;;;;;5028217;27;74623;-70
2023/10/21 14:45:29;;;;;;;;;;;20.00;77.50;;;;;;5040698;27;80077;-71
2023/10/21 14:47:55;;;;;;;;;;;20.00;77.50;;;;;;5039033;27;75683;-71
2023/10/21 14:50:23;;;;;;;;;;;20.00;77.50;;;;;;5030870;27;79851;-71
2023/10/21 14:52:49;;;;;;;;;;;20.00;77.70;;;;;;5042068;27;72019;-70